Huvudsida
METAR-TAF:

METAR-TAF

Flygplatser :

Sandnessjøens flygplats. Stokka

Sandnessjøen, Norge

latitud: 65-58N, longitud: 012-28E, höjd: 1 m

Aktuellt väderrapport

Denna rapport gjordes för 2 timmar och 45 minuter sedan, klockan 19:50 UTC
Vind 11 kt från ost i byarna ända upp till 21 kt, varierande mellan nord och syd/sydost
Temperatur -2°C
Fuktighet 54%
Tryck 1007 hPa
Sikt 10 km eller mer
Spridda moln på en höjd av 4500 ft
Brutna moln på en höjd av 6000 ft

METAR: ENST 111950Z 09011G21KT 010V160 9999 SCT045 BKN060 M02/M10 Q1007 RMK WIND 300FT 11028G38KT

Tid: 23:35 (22:35 UTC)


TAF: saknas

Aktuella väderrapporter och prognoser från 4000 flygplatser (METAR- och TAF-rapporter).

De tillgängliga stationerna syns som gula och röda prickar på kartan.

För musen över prickarna för att se namnen på stationerna.

Klicka sedan för att få väderrapporter och prognoser.

För att ändra kartan: Klicka på de gröna knapparna med ett svart kors på för att zooma in; den gröna knappen med ett streck på för att zooma ut; eller på de gröna pilarna för angränsande kartor.


METAR-TAF: